Time;durP1;ratioP1;P1;durP2;ratioP2;P2;SDS_P1;SDS_P2;PMS_P1;PMS_P2;Temp;Humidity;BMP_temperature;BMP_pressure;BME280_temperature;BME280_humidity;BME280_pressure;Samples;Min_cycle;Max_cycle;Signal;HPM_P1;HPM_P2
2021/05/02 00:01:54;;;;;;;22.47;20.10;;;;;;;;;;5115308;27;20931;-63
2021/05/02 00:04:19;;;;;;;24.67;19.20;;;;;;;;;;5116137;27;20540;-63
2021/05/02 00:06:45;;;;;;;22.57;20.20;;;;;;;;;;5115580;28;20530;-63
2021/05/02 00:09:10;;;;;;;21.30;19.10;;;;;;;;;;5114757;28;21725;-63
2021/05/02 00:11:35;;;;;;;22.40;20.10;;;;;;;;;;5116522;27;20244;-63
2021/05/02 00:14:02;;;;;;;23.53;21.20;;;;;;;;;;5115051;27;20241;-63
2021/05/02 00:16:28;;;;;;;22.70;20.03;;;;;;;;;;5116552;27;20290;-63
2021/05/02 00:18:53;;;;;;;22.47;19.57;;;;;;;;;;5116075;27;20461;-63
2021/05/02 00:21:18;;;;;;;23.50;21.00;;;;;;;;;;5116342;27;20252;-63
2021/05/02 00:23:44;;;;;;;22.80;20.10;;;;;;;;;;5116595;27;20649;-63
2021/05/02 00:26:10;;;;;;;23.40;20.47;;;;;;;;;;5115950;27;20215;-63
2021/05/02 00:28:38;;;;;;;21.67;19.37;;;;;;;;;;5116309;27;20229;-64
2021/05/02 00:31:08;;;;;;;22.93;20.40;;;;;;;;;;5115892;27;20457;-64
2021/05/02 00:33:35;;;;;;;24.17;19.90;;;;;;;;;;5116124;27;20457;-63
2021/05/02 00:36:01;;;;;;;22.30;19.90;;;;;;;;;;5115623;27;20453;-63
2021/05/02 00:38:26;;;;;;;24.13;21.53;;;;;;;;;;5116063;27;20508;-64
2021/05/02 00:40:57;;;;;;;22.27;19.93;;;;;;;;;;5115647;27;20510;-64
2021/05/02 00:43:51;;;;;;;25.13;22.13;;;;;;;;;;5114990;27;20233;-63
2021/05/02 00:46:19;;;;;;;22.20;19.80;;;;;;;;;;5112054;27;20535;-63
2021/05/02 00:49:01;;;;;;;23.07;20.70;;;;;;;;;;5114931;27;20487;-63
2021/05/02 00:51:27;;;;;;;22.20;20.00;;;;;;;;;;5115763;27;20457;-63
2021/05/02 00:54:05;;;;;;;24.80;20.83;;;;;;;;;;5114946;27;20450;-63
2021/05/02 00:56:34;;;;;;;23.37;20.93;;;;;;;;;;5115389;27;20454;-63
2021/05/02 00:59:05;;;;;;;26.33;21.40;;;;;;;;;;5115535;27;20485;-64
2021/05/02 01:01:36;;;;;;;26.07;23.23;;;;;;;;;;5115380;27;20515;-64
2021/05/02 01:04:03;;;;;;;24.13;21.67;;;;;;;;;;5095202;28;20454;-63
2021/05/02 01:06:30;;;;;;;23.87;21.37;;;;;;;;;;5110518;27;20791;-64
2021/05/02 01:08:57;;;;;;;23.10;20.77;;;;;;;;;;5115527;27;20551;-64
2021/05/02 01:11:23;;;;;;;26.57;23.77;;;;;;;;;;5113874;28;20480;-64
2021/05/02 01:13:59;;;;;;;22.50;20.30;;;;;;;;;;5115409;28;20480;-63
2021/05/02 01:16:28;;;;;;;31.97;26.67;;;;;;;;;;5114133;28;20253;-63
2021/05/02 01:18:55;;;;;;;32.37;25.30;;;;;;;;;;5115574;27;20449;-63
2021/05/02 01:21:28;;;;;;;28.13;23.73;;;;;;;;;;5115014;28;20465;-63
2021/05/02 01:23:54;;;;;;;25.03;22.43;;;;;;;;;;5115521;27;20481;-63
2021/05/02 01:26:20;;;;;;;29.17;23.03;;;;;;;;;;5114923;28;20469;-64
2021/05/02 01:28:47;;;;;;;25.03;22.43;;;;;;;;;;5115290;28;20223;-63
2021/05/02 01:31:12;;;;;;;25.53;22.87;;;;;;;;;;5113829;28;20272;-63
2021/05/02 01:33:39;;;;;;;23.80;21.30;;;;;;;;;;5115347;28;20449;-64
2021/05/02 01:36:05;;;;;;;25.13;22.40;;;;;;;;;;5114042;28;20211;-64
2021/05/02 01:38:30;;;;;;;25.40;22.70;;;;;;;;;;5113471;28;20433;-63
2021/05/02 01:40:56;;;;;;;24.87;21.97;;;;;;;;;;5114085;28;20227;-64
2021/05/02 01:43:21;;;;;;;26.13;22.57;;;;;;;;;;5114386;28;20368;-64
2021/05/02 01:45:47;;;;;;;24.90;22.20;;;;;;;;;;5114959;28;20221;-63
2021/05/02 01:48:13;;;;;;;25.33;22.77;;;;;;;;;;5114212;28;20294;-63
2021/05/02 01:51:03;;;;;;;24.53;22.03;;;;;;;;;;5113851;28;20215;-63
2021/05/02 01:53:32;;;;;;;24.30;21.70;;;;;;;;;;5114336;28;20798;-64
2021/05/02 01:56:01;;;;;;;27.17;24.27;;;;;;;;;;5114911;28;20885;-64
2021/05/02 01:58:27;;;;;;;25.33;22.57;;;;;;;;;;5114235;28;20510;-63
2021/05/02 02:00:55;;;;;;;25.03;22.33;;;;;;;;;;5113735;28;20495;-63
2021/05/02 02:03:20;;;;;;;27.97;22.30;;;;;;;;;;5114085;27;20453;-64
2021/05/02 02:05:47;;;;;;;24.23;21.73;;;;;;;;;;5113602;27;20456;-63
2021/05/02 02:08:12;;;;;;;25.07;22.37;;;;;;;;;;5114209;28;20220;-64
2021/05/02 02:10:38;;;;;;;27.23;22.00;;;;;;;;;;5114411;27;20463;-64
2021/05/02 02:13:04;;;;;;;27.40;23.30;;;;;;;;;;5114695;27;20294;-62
2021/05/02 02:15:30;;;;;;;27.37;23.83;;;;;;;;;;5114084;27;20544;-63
2021/05/02 02:17:55;;;;;;;28.80;24.50;;;;;;;;;;5114045;27;20251;-63
2021/05/02 02:20:22;;;;;;;25.10;22.40;;;;;;;;;;5113895;27;20456;-63
2021/05/02 02:22:50;;;;;;;32.53;25.63;;;;;;;;;;5114258;27;20716;-63
2021/05/02 02:25:16;;;;;;;26.20;22.57;;;;;;;;;;5113950;27;20476;-64
2021/05/02 02:27:41;;;;;;;28.13;24.00;;;;;;;;;;5114045;27;20461;-63
2021/05/02 02:30:09;;;;;;;27.20;23.50;;;;;;;;;;5114320;27;20215;-63
2021/05/02 02:32:36;;;;;;;26.10;23.43;;;;;;;;;;5113782;27;20217;-63
2021/05/02 02:35:03;;;;;;;28.63;24.33;;;;;;;;;;5113218;27;20540;-63
2021/05/02 02:37:29;;;;;;;24.43;21.93;;;;;;;;;;5113678;27;20548;-63
2021/05/02 02:39:58;;;;;;;26.93;23.87;;;;;;;;;;5114161;27;20531;-63
2021/05/02 02:42:24;;;;;;;28.40;23.87;;;;;;;;;;5113727;27;20215;-63
2021/05/02 02:44:58;;;;;;;26.97;24.23;;;;;;;;;;5113881;27;20952;-64
2021/05/02 02:47:25;;;;;;;24.20;21.60;;;;;;;;;;5113775;27;20514;-63
2021/05/02 02:49:57;;;;;;;26.37;23.17;;;;;;;;;;5103841;27;20440;-63
2021/05/02 02:52:25;;;;;;;27.67;23.30;;;;;;;;;;5104151;27;20463;-63
2021/05/02 02:55:05;;;;;;;28.20;23.30;;;;;;;;;;5103799;27;20771;-63
2021/05/02 02:57:37;;;;;;;26.30;23.37;;;;;;;;;;5101165;27;20470;-63
2021/05/02 03:00:04;;;;;;;27.40;23.10;;;;;;;;;;5093594;27;20909;-63
2021/05/02 03:02:30;;;;;;;27.20;24.30;;;;;;;;;;5098862;27;20477;-64
2021/05/02 03:04:56;;;;;;;26.23;23.43;;;;;;;;;;5113498;27;20457;-62
2021/05/02 03:07:22;;;;;;;25.77;23.00;;;;;;;;;;5113044;27;20499;-63
2021/05/02 03:09:48;;;;;;;28.03;24.33;;;;;;;;;;5111449;27;20298;-64
2021/05/02 03:12:17;;;;;;;25.90;23.17;;;;;;;;;;5110756;27;20465;-63
2021/05/02 03:14:42;;;;;;;24.60;22.10;;;;;;;;;;5103378;27;20465;-63
2021/05/02 03:17:08;;;;;;;26.80;23.80;;;;;;;;;;5106796;27;20859;-64
2021/05/02 03:19:38;;;;;;;27.40;24.27;;;;;;;;;;5101848;27;20215;-63
2021/05/02 03:22:07;;;;;;;26.30;23.60;;;;;;;;;;5113966;28;20777;-64
2021/05/02 03:24:39;;;;;;;28.37;24.70;;;;;;;;;;5101466;27;20620;-64
2021/05/02 03:27:08;;;;;;;26.80;24.03;;;;;;;;;;5106057;27;20454;-63
2021/05/02 03:29:38;;;;;;;25.80;23.13;;;;;;;;;;5103605;27;21009;-63
2021/05/02 03:32:10;;;;;;;26.03;23.33;;;;;;;;;;5099591;27;20461;-63
2021/05/02 03:34:41;;;;;;;29.07;22.77;;;;;;;;;;5100327;27;20815;-63
2021/05/02 03:37:15;;;;;;;28.77;24.43;;;;;;;;;;5104371;28;20483;-64
2021/05/02 03:39:41;;;;;;;27.77;24.87;;;;;;;;;;5113464;27;20463;-64
2021/05/02 03:42:06;;;;;;;24.30;21.70;;;;;;;;;;5104684;27;20465;-63
2021/05/02 03:44:31;;;;;;;28.90;24.43;;;;;;;;;;5102977;27;20229;-63
2021/05/02 03:46:57;;;;;;;25.80;22.60;;;;;;;;;;5109160;27;20368;-63
2021/05/02 03:49:22;;;;;;;26.90;23.03;;;;;;;;;;5109776;27;20234;-61
2021/05/02 03:51:47;;;;;;;27.43;23.80;;;;;;;;;;5104576;27;20219;-62
2021/05/02 03:54:13;;;;;;;28.60;22.50;;;;;;;;;;5103244;27;20220;-64
2021/05/02 03:56:40;;;;;;;30.10;23.90;;;;;;;;;;5108782;27;20572;-63
2021/05/02 03:59:08;;;;;;;26.53;23.07;;;;;;;;;;5110001;27;20299;-63
2021/05/02 04:01:34;;;;;;;28.17;24.17;;;;;;;;;;5103910;27;20487;-63
2021/05/02 04:03:59;;;;;;;29.50;24.57;;;;;;;;;;5106960;27;20974;-62
2021/05/02 04:06:26;;;;;;;28.10;24.60;;;;;;;;;;5115403;27;21006;-62
2021/05/02 04:08:51;;;;;;;26.00;22.40;;;;;;;;;;5102817;27;20242;-62
2021/05/02 04:11:16;;;;;;;27.40;23.13;;;;;;;;;;5113577;27;20544;-62
2021/05/02 04:13:42;;;;;;;29.33;24.00;;;;;;;;;;5116277;27;20237;-64
2021/05/02 04:16:07;;;;;;;32.27;25.90;;;;;;;;;;5104725;27;20309;-62
2021/05/02 04:18:32;;;;;;;27.87;24.87;;;;;;;;;;5109132;27;20231;-62
2021/05/02 04:20:58;;;;;;;28.00;24.87;;;;;;;;;;5108070;27;20680;-63
2021/05/02 04:23:23;;;;;;;29.80;24.47;;;;;;;;;;5102738;27;20271;-64
2021/05/02 04:25:48;;;;;;;29.97;24.43;;;;;;;;;;5104650;27;20230;-63
2021/05/02 04:28:13;;;;;;;27.57;24.00;;;;;;;;;;5109715;27;20311;-63
2021/05/02 04:30:39;;;;;;;29.27;24.80;;;;;;;;;;5106651;27;20223;-63
2021/05/02 04:33:04;;;;;;;34.33;23.40;;;;;;;;;;5102428;27;20311;-62
2021/05/02 04:35:29;;;;;;;28.13;24.77;;;;;;;;;;5105101;27;20656;-63
2021/05/02 04:37:54;;;;;;;28.27;23.77;;;;;;;;;;5112963;27;20355;-63
2021/05/02 04:40:20;;;;;;;29.20;23.33;;;;;;;;;;5116149;27;20225;-63
2021/05/02 04:42:45;;;;;;;27.97;24.03;;;;;;;;;;5100905;27;20230;-63
2021/05/02 04:45:11;;;;;;;28.70;23.77;;;;;;;;;;5105835;27;20234;-63
2021/05/02 04:47:36;;;;;;;26.03;22.47;;;;;;;;;;5110776;27;20248;-63
2021/05/02 04:50:03;;;;;;;30.30;22.80;;;;;;;;;;5106824;27;20590;-62
2021/05/02 04:52:28;;;;;;;25.37;22.63;;;;;;;;;;5108806;27;20215;-63
2021/05/02 04:54:53;;;;;;;30.40;24.27;;;;;;;;;;5104693;27;20471;-63
2021/05/02 04:57:19;;;;;;;27.90;23.00;;;;;;;;;;5101720;27;20659;-63
2021/05/02 04:59:44;;;;;;;25.93;23.23;;;;;;;;;;5106719;27;20234;-63
2021/05/02 05:02:09;;;;;;;28.30;24.87;;;;;;;;;;5107048;27;20302;-63
2021/05/02 05:04:34;;;;;;;26.90;24.00;;;;;;;;;;5115063;27;20245;-63
2021/05/02 05:07:00;;;;;;;26.23;23.53;;;;;;;;;;5109639;27;20306;-63
2021/05/02 05:09:26;;;;;;;27.03;24.10;;;;;;;;;;5107564;27;20679;-62
2021/05/02 05:11:51;;;;;;;27.03;22.17;;;;;;;;;;5114147;27;20363;-63
2021/05/02 05:14:16;;;;;;;25.33;21.47;;;;;;;;;;5115501;27;20991;-64
2021/05/02 05:16:42;;;;;;;25.87;23.03;;;;;;;;;;5101226;27;20310;-63
2021/05/02 05:19:07;;;;;;;27.83;23.43;;;;;;;;;;5106963;27;20223;-63
2021/05/02 05:21:33;;;;;;;28.67;24.20;;;;;;;;;;5107977;27;20303;-63
2021/05/02 05:23:58;;;;;;;28.33;22.70;;;;;;;;;;5106288;27;20226;-64
2021/05/02 05:26:24;;;;;;;27.33;23.10;;;;;;;;;;5113436;27;20310;-63
2021/05/02 05:28:49;;;;;;;26.17;21.90;;;;;;;;;;5114752;27;20230;-63
2021/05/02 05:31:14;;;;;;;26.90;23.63;;;;;;;;;;5101318;27;20222;-63
2021/05/02 05:33:39;;;;;;;32.40;24.33;;;;;;;;;;5103927;27;20299;-63
2021/05/02 05:36:05;;;;;;;24.33;21.63;;;;;;;;;;5103234;27;20221;-63
2021/05/02 05:38:30;;;;;;;28.50;23.77;;;;;;;;;;5104231;27;20237;-63
2021/05/02 05:40:55;;;;;;;29.73;24.07;;;;;;;;;;5107878;27;20617;-64
2021/05/02 05:43:21;;;;;;;27.97;24.03;;;;;;;;;;5104565;27;20250;-63
2021/05/02 05:45:47;;;;;;;26.50;22.70;;;;;;;;;;5100877;27;20567;-63
2021/05/02 05:48:12;;;;;;;26.63;23.03;;;;;;;;;;5104812;27;20478;-62
2021/05/02 05:50:39;;;;;;;25.93;23.13;;;;;;;;;;5107487;27;20571;-62
2021/05/02 05:53:04;;;;;;;22.80;20.43;;;;;;;;;;5106410;27;20211;-63
2021/05/02 05:55:30;;;;;;;24.90;21.20;;;;;;;;;;5100795;27;20461;-63
2021/05/02 05:57:55;;;;;;;26.43;22.23;;;;;;;;;;5104523;27;20228;-63
2021/05/02 06:00:22;;;;;;;26.37;21.43;;;;;;;;;;5107948;27;20572;-63
2021/05/02 06:02:47;;;;;;;23.13;20.67;;;;;;;;;;5092828;27;20733;-63
2021/05/02 06:05:13;;;;;;;24.03;20.43;;;;;;;;;;5099668;27;20453;-63
2021/05/02 06:07:38;;;;;;;23.00;20.47;;;;;;;;;;5105254;27;20233;-63
2021/05/02 06:10:05;;;;;;;25.30;22.57;;;;;;;;;;5106238;27;20270;-64
2021/05/02 06:12:30;;;;;;;21.77;19.27;;;;;;;;;;5114473;27;20647;-62
2021/05/02 06:14:55;;;;;;;23.13;19.30;;;;;;;;;;5111139;27;20623;-62
2021/05/02 06:17:21;;;;;;;24.13;21.60;;;;;;;;;;5101556;27;20543;-62
2021/05/02 06:19:46;;;;;;;22.57;19.53;;;;;;;;;;5100116;27;20224;-63
2021/05/02 06:22:11;;;;;;;22.37;19.43;;;;;;;;;;5113568;27;20363;-64
2021/05/02 06:24:37;;;;;;;21.83;19.43;;;;;;;;;;5099830;27;20234;-62
2021/05/02 06:27:02;;;;;;;24.20;21.00;;;;;;;;;;5110588;27;20298;-63
2021/05/02 06:29:28;;;;;;;24.93;19.03;;;;;;;;;;5100387;27;20215;-63
2021/05/02 06:31:53;;;;;;;23.03;20.50;;;;;;;;;;5106548;27;20246;-63
2021/05/02 06:34:18;;;;;;;21.43;18.80;;;;;;;;;;5107497;27;20222;-63
2021/05/02 06:36:44;;;;;;;23.27;20.27;;;;;;;;;;5100241;27;20319;-63
2021/05/02 06:39:09;;;;;;;23.87;21.43;;;;;;;;;;5099514;28;20216;-63
2021/05/02 06:41:38;;;;;;;23.10;20.60;;;;;;;;;;5107102;27;20227;-63
2021/05/02 06:44:03;;;;;;;20.33;18.30;;;;;;;;;;5106560;27;20233;-62
2021/05/02 06:46:29;;;;;;;20.77;18.67;;;;;;;;;;5100890;27;20536;-63
2021/05/02 06:48:56;;;;;;;21.47;19.30;;;;;;;;;;5112419;27;20279;-63
2021/05/02 06:51:22;;;;;;;21.40;18.20;;;;;;;;;;5100298;27;20553;-64
2021/05/02 06:53:47;;;;;;;21.33;19.13;;;;;;;;;;5100468;27;20462;-63
2021/05/02 06:56:12;;;;;;;20.80;18.50;;;;;;;;;;5107042;27;20477;-63
2021/05/02 06:58:37;;;;;;;21.20;19.10;;;;;;;;;;5106473;27;20242;-63
2021/05/02 07:01:03;;;;;;;26.80;21.70;;;;;;;;;;5099851;27;20298;-63
2021/05/02 07:03:28;;;;;;;21.70;18.90;;;;;;;;;;5110317;27;20217;-63
2021/05/02 07:05:53;;;;;;;22.10;18.40;;;;;;;;;;5113399;27;20667;-63
2021/05/02 07:08:19;;;;;;;23.93;19.43;;;;;;;;;;5099742;27;20237;-64
2021/05/02 07:10:44;;;;;;;21.47;19.17;;;;;;;;;;5109253;27;20215;-63
2021/05/02 07:13:09;;;;;;;20.57;18.43;;;;;;;;;;5113885;28;20213;-64
2021/05/02 07:15:35;;;;;;;20.13;17.90;;;;;;;;;;5110640;27;20231;-64
2021/05/02 07:18:00;;;;;;;20.30;18.37;;;;;;;;;;5110389;27;20635;-63
2021/05/02 07:20:25;;;;;;;19.33;17.20;;;;;;;;;;5104456;27;20219;-63
2021/05/02 07:22:53;;;;;;;20.27;17.57;;;;;;;;;;5116440;27;20219;-63
2021/05/02 07:25:22;;;;;;;19.70;17.63;;;;;;;;;;5103786;27;20254;-63
2021/05/02 07:27:47;;;;;;;20.73;17.17;;;;;;;;;;5113204;27;20486;-63
2021/05/02 07:30:13;;;;;;;18.30;16.50;;;;;;;;;;5103845;27;20532;-64
2021/05/02 07:32:38;;;;;;;18.77;16.90;;;;;;;;;;5103962;27;20234;-64
2021/05/02 07:35:04;;;;;;;19.67;17.63;;;;;;;;;;5110241;27;20224;-63
2021/05/02 07:37:29;;;;;;;21.20;19.10;;;;;;;;;;5110191;27;20506;-63
2021/05/02 07:39:55;;;;;;;18.30;16.17;;;;;;;;;;5103177;28;20245;-62
2021/05/02 07:42:20;;;;;;;20.47;18.33;;;;;;;;;;5117117;27;20322;-63
2021/05/02 07:44:46;;;;;;;20.07;17.27;;;;;;;;;;5102814;27;20238;-63
2021/05/02 07:47:12;;;;;;;19.63;17.60;;;;;;;;;;5103924;27;20674;-63
2021/05/02 07:49:37;;;;;;;23.47;18.17;;;;;;;;;;5110189;27;20481;-63
2021/05/02 07:52:03;;;;;;;20.37;18.37;;;;;;;;;;5109445;27;20227;-64
2021/05/02 07:54:29;;;;;;;18.30;16.60;;;;;;;;;;5103041;27;20564;-63
2021/05/02 07:56:54;;;;;;;19.60;17.50;;;;;;;;;;5103280;27;20238;-64
2021/05/02 07:59:19;;;;;;;20.53;18.50;;;;;;;;;;5110209;27;20559;-64
2021/05/02 08:01:44;;;;;;;20.03;16.90;;;;;;;;;;5107028;27;20332;-63
2021/05/02 08:04:10;;;;;;;19.57;17.60;;;;;;;;;;5115741;27;20210;-64
2021/05/02 08:06:35;;;;;;;20.67;18.57;;;;;;;;;;5115509;27;20751;-63
2021/05/02 08:09:00;;;;;;;19.07;17.27;;;;;;;;;;5102584;27;20218;-63
2021/05/02 08:11:25;;;;;;;20.30;18.23;;;;;;;;;;5112723;28;20298;-64
2021/05/02 08:13:51;;;;;;;20.93;18.87;;;;;;;;;;5115932;27;20219;-63
2021/05/02 08:16:16;;;;;;;20.50;18.60;;;;;;;;;;5103330;27;20226;-64
2021/05/02 08:18:41;;;;;;;20.47;18.03;;;;;;;;;;5109598;27;20228;-64
2021/05/02 08:21:10;;;;;;;20.17;18.07;;;;;;;;;;5107458;27;20212;-64
2021/05/02 08:23:35;;;;;;;19.77;17.70;;;;;;;;;;5102585;27;20219;-62
2021/05/02 08:26:02;;;;;;;21.37;19.17;;;;;;;;;;5104751;27;20527;-62
2021/05/02 08:28:27;;;;;;;21.10;18.53;;;;;;;;;;5109950;27;20666;-64
2021/05/02 08:30:52;;;;;;;21.37;19.37;;;;;;;;;;5108352;27;20530;-63
2021/05/02 08:33:18;;;;;;;20.77;18.77;;;;;;;;;;5102254;27;20611;-63
2021/05/02 08:35:43;;;;;;;19.77;17.87;;;;;;;;;;5104062;27;20289;-63
2021/05/02 08:38:08;;;;;;;23.00;20.60;;;;;;;;;;5107779;27;20231;-63
2021/05/02 08:40:33;;;;;;;20.10;18.10;;;;;;;;;;5107389;27;20223;-63
2021/05/02 08:43:09;;;;;;;20.00;17.97;;;;;;;;;;5101600;27;20312;-63
2021/05/02 08:45:35;;;;;;;21.83;19.63;;;;;;;;;;5102612;27;20225;-62
2021/05/02 08:48:01;;;;;;;22.30;20.10;;;;;;;;;;5112736;27;20477;-63
2021/05/02 08:50:26;;;;;;;22.10;19.17;;;;;;;;;;5103272;27;20818;-63
2021/05/02 08:52:51;;;;;;;23.13;20.00;;;;;;;;;;5108561;27;20277;-64
2021/05/02 08:55:16;;;;;;;23.50;21.20;;;;;;;;;;5107795;27;20215;-62
2021/05/02 08:57:42;;;;;;;21.43;19.33;;;;;;;;;;5101612;27;20325;-64
2021/05/02 09:00:08;;;;;;;22.23;19.93;;;;;;;;;;5103311;27;20225;-63
2021/05/02 09:02:35;;;;;;;22.17;19.97;;;;;;;;;;5109957;27;20230;-63
2021/05/02 09:05:03;;;;;;;21.37;19.17;;;;;;;;;;5114774;27;20481;-63
2021/05/02 09:07:46;;;;;;;23.50;21.17;;;;;;;;;;5107797;27;20460;-63
2021/05/02 09:10:12;;;;;;;22.63;20.27;;;;;;;;;;5107719;27;20521;-63
2021/05/02 09:12:38;;;;;;;21.60;19.00;;;;;;;;;;5115515;27;20469;-63
2021/05/02 09:15:19;;;;;;;21.83;19.57;;;;;;;;;;5111542;27;20462;-63
2021/05/02 09:18:14;;;;;;;23.70;21.10;;;;;;;;;;5107443;27;20462;-63
2021/05/02 09:20:51;;;;;;;23.23;21.03;;;;;;;;;;5096325;27;20516;-62
2021/05/02 09:23:18;;;;;;;22.93;20.47;;;;;;;;;;5112906;28;20531;-62
2021/05/02 09:25:47;;;;;;;23.60;21.30;;;;;;;;;;5103709;27;20485;-63
2021/05/02 09:28:12;;;;;;;23.23;20.60;;;;;;;;;;5113020;28;20533;-63
2021/05/02 09:30:38;;;;;;;23.77;21.37;;;;;;;;;;5102853;27;20476;-64
2021/05/02 09:33:03;;;;;;;22.90;20.47;;;;;;;;;;5108325;27;20637;-63
2021/05/02 09:35:31;;;;;;;22.63;20.40;;;;;;;;;;5105770;27;20682;-64
2021/05/02 09:38:17;;;;;;;22.73;20.40;;;;;;;;;;5100269;27;20642;-64
2021/05/02 09:40:49;;;;;;;24.13;21.53;;;;;;;;;;5099464;27;20461;-64
2021/05/02 09:43:41;;;;;;;24.20;20.40;;;;;;;;;;5106192;27;20476;-64
2021/05/02 09:46:26;;;;;;;24.67;22.10;;;;;;;;;;5107779;27;20453;-63
2021/05/02 09:48:52;;;;;;;24.30;21.77;;;;;;;;;;5107352;27;20450;-64
2021/05/02 09:51:17;;;;;;;25.20;22.60;;;;;;;;;;5102420;27;21017;-63
2021/05/02 09:53:59;;;;;;;22.07;19.77;;;;;;;;;;5100561;27;20548;-64
2021/05/02 09:56:30;;;;;;;22.43;20.13;;;;;;;;;;5104238;27;20556;-65
2021/05/02 09:58:55;;;;;;;23.10;20.90;;;;;;;;;;5107493;27;20571;-64
2021/05/02 10:01:21;;;;;;;22.40;20.30;;;;;;;;;;5104761;27;20472;-64
2021/05/02 10:03:51;;;;;;;23.83;21.20;;;;;;;;;;5112464;27;20244;-64
2021/05/02 10:06:28;;;;;;;22.83;20.60;;;;;;;;;;5114465;27;20222;-64
2021/05/02 10:08:53;;;;;;;22.20;20.00;;;;;;;;;;5100411;27;20467;-64
2021/05/02 10:11:19;;;;;;;21.07;18.87;;;;;;;;;;5110623;28;20463;-64
2021/05/02 10:13:44;;;;;;;20.83;18.67;;;;;;;;;;5112499;27;20236;-64
2021/05/02 10:16:12;;;;;;;22.03;19.70;;;;;;;;;;5101652;27;20215;-64
2021/05/02 10:18:38;;;;;;;20.70;18.70;;;;;;;;;;5107417;27;20231;-63
2021/05/02 10:21:05;;;;;;;20.53;18.33;;;;;;;;;;5106340;27;20549;-63
2021/05/02 10:23:31;;;;;;;18.67;16.70;;;;;;;;;;5107652;27;20679;-65
2021/05/02 10:25:57;;;;;;;20.43;18.40;;;;;;;;;;5102646;27;20467;-65
2021/05/02 10:28:33;;;;;;;19.00;17.20;;;;;;;;;;5106565;27;20234;-64
2021/05/02 10:31:00;;;;;;;18.00;16.40;;;;;;;;;;5106677;27;20546;-65
2021/05/02 10:33:43;;;;;;;20.67;18.67;;;;;;;;;;5100660;27;20504;-64
2021/05/02 10:36:20;;;;;;;18.67;16.77;;;;;;;;;;5100015;27;20510;-63
2021/05/02 10:38:49;;;;;;;21.30;16.97;;;;;;;;;;5103385;27;20475;-64
2021/05/02 10:41:34;;;;;;;19.97;18.03;;;;;;;;;;5107252;27;20451;-64
2021/05/02 10:44:11;;;;;;;19.00;16.83;;;;;;;;;;5106400;27;20502;-64
2021/05/02 10:46:57;;;;;;;17.50;15.90;;;;;;;;;;5101660;28;20482;-65
2021/05/02 10:49:22;;;;;;;21.30;19.20;;;;;;;;;;5114522;27;20456;-64
2021/05/02 10:51:55;;;;;;;19.77;17.45;;;;;;;;;;5107817;27;20449;-65
2021/05/02 10:54:22;;;;;;;18.30;15.90;;;;;;;;;;5103601;28;20574;-64
2021/05/02 10:56:55;;;;;;;17.83;15.93;;;;;;;;;;5105681;27;20463;-64
2021/05/02 10:59:24;;;;;;;18.63;15.80;;;;;;;;;;5108799;27;20464;-64
2021/05/02 11:01:49;;;;;;;18.77;16.97;;;;;;;;;;5115208;27;20455;-64
2021/05/02 11:04:15;;;;;;;18.63;16.83;;;;;;;;;;5116926;27;20467;-64
2021/05/02 11:06:41;;;;;;;20.33;17.13;;;;;;;;;;5116211;27;20251;-65
2021/05/02 11:09:16;;;;;;;17.73;16.03;;;;;;;;;;5105122;27;20229;-64
2021/05/02 11:11:47;;;;;;;17.60;15.93;;;;;;;;;;5114591;27;20454;-64
2021/05/02 11:14:14;;;;;;;17.77;15.87;;;;;;;;;;5117053;27;20946;-64
2021/05/02 11:16:47;;;;;;;17.30;15.50;;;;;;;;;;5117020;27;20484;-64
2021/05/02 11:19:24;;;;;;;18.17;16.60;;;;;;;;;;5117711;27;20464;-64
2021/05/02 11:21:55;;;;;;;18.13;16.33;;;;;;;;;;5111879;27;20445;-64
2021/05/02 11:24:24;;;;;;;18.57;16.77;;;;;;;;;;5110047;27;20451;-64
2021/05/02 11:29:37;;;;;;;59.30;29.10;;;;;;;;;;5103501;27;20516;-62
2021/05/02 11:32:04;;;;;;;23.20;20.00;;;;;;;;;;5107117;27;20457;-63
2021/05/02 11:34:52;;;;;;;31.13;21.17;;;;;;;;;;5110127;27;20494;-64
2021/05/02 11:37:45;;;;;;;56.07;29.30;;;;;;;;;;5108944;27;20475;-63
2021/05/02 11:40:29;;;;;;;22.73;16.70;;;;;;;;;;5105542;27;20524;-64
2021/05/02 11:43:07;;;;;;;21.63;16.00;;;;;;;;;;5111980;27;20531;-65
2021/05/02 11:45:40;;;;;;;20.30;17.63;;;;;;;;;;5109701;27;20854;-63
2021/05/02 11:48:07;;;;;;;21.60;17.70;;;;;;;;;;5104125;28;21069;-64
2021/05/02 11:50:39;;;;;;;20.60;16.40;;;;;;;;;;5115376;27;20917;-64
2021/05/02 11:53:05;;;;;;;23.43;18.03;;;;;;;;;;5105703;27;20470;-64
2021/05/02 11:55:36;;;;;;;17.43;15.83;;;;;;;;;;5102510;27;20779;-63
2021/05/02 11:58:13;;;;;;;18.47;16.30;;;;;;;;;;5107001;27;20223;-64
2021/05/02 12:00:46;;;;;;;16.50;14.80;;;;;;;;;;5108758;27;20450;-64
2021/05/02 12:03:13;;;;;;;18.37;16.47;;;;;;;;;;5098515;27;20480;-64
2021/05/02 12:05:49;;;;;;;21.60;17.00;;;;;;;;;;5116073;27;20560;-64
2021/05/02 12:08:17;;;;;;;18.77;16.87;;;;;;;;;;5102354;27;20458;-63
2021/05/02 12:10:43;;;;;;;17.43;15.73;;;;;;;;;;5113784;27;20469;-64
2021/05/02 12:13:28;;;;;;;20.93;17.37;;;;;;;;;;5115542;28;20983;-64
2021/05/02 12:16:00;;;;;;;20.53;18.37;;;;;;;;;;5106279;27;20458;-64
2021/05/02 12:18:57;;;;;;;19.83;17.83;;;;;;;;;;5108982;27;20951;-64
2021/05/02 12:21:30;;;;;;;20.93;17.83;;;;;;;;;;5109131;27;20540;-64
2021/05/02 12:24:23;;;;;;;19.03;17.00;;;;;;;;;;5105874;27;20971;-64
2021/05/02 12:26:50;;;;;;;19.93;17.93;;;;;;;;;;5104059;27;20961;-64
2021/05/02 12:29:24;;;;;;;18.33;16.40;;;;;;;;;;5102485;27;20450;-64
2021/05/02 12:32:02;;;;;;;18.07;16.37;;;;;;;;;;5103321;28;20453;-64
2021/05/02 12:34:32;;;;;;;18.17;16.47;;;;;;;;;;5112620;27;20459;-63
2021/05/02 12:37:16;;;;;;;17.53;15.70;;;;;;;;;;5104208;27;20502;-64
2021/05/02 12:39:43;;;;;;;16.23;14.57;;;;;;;;;;5102019;27;20459;-64
2021/05/02 12:42:08;;;;;;;18.23;16.43;;;;;;;;;;5103381;27;20489;-64
2021/05/02 12:44:35;;;;;;;19.30;17.60;;;;;;;;;;5101060;27;20489;-64
2021/05/02 12:47:15;;;;;;;19.17;17.27;;;;;;;;;;5115542;27;20664;-63
2021/05/02 12:49:54;;;;;;;18.43;16.57;;;;;;;;;;5100509;28;20450;-64
2021/05/02 12:52:19;;;;;;;16.53;15.00;;;;;;;;;;5114687;27;20954;-63
2021/05/02 12:54:45;;;;;;;17.20;15.33;;;;;;;;;;5102949;27;20459;-64
2021/05/02 12:57:15;;;;;;;17.20;15.60;;;;;;;;;;5101643;27;20230;-64
2021/05/02 13:02:15;;;;;;;18.27;16.47;;;;;;;;;;5107583;27;20935;-64
2021/05/02 13:04:57;;;;;;;18.37;16.53;;;;;;;;;;5114959;27;20755;-64
2021/05/02 13:07:44;;;;;;;18.83;16.90;;;;;;;;;;5115288;28;20448;-65
2021/05/02 13:10:19;;;;;;;18.20;16.47;;;;;;;;;;5103594;27;20541;-63
2021/05/02 13:13:08;;;;;;;18.60;16.80;;;;;;;;;;5115474;27;20448;-65
2021/05/02 13:15:43;;;;;;;10.70;9.60;;;;;;;;;;5101340;28;20448;-64
2021/05/02 13:18:26;;;;;;;9.67;8.63;;;;;;;;;;5114091;27;20464;-63
2021/05/02 13:21:02;;;;;;;9.50;8.50;;;;;;;;;;5103847;27;20468;-63
2021/05/02 13:23:34;;;;;;;9.67;8.77;;;;;;;;;;5101539;27;20538;-63
2021/05/02 13:26:24;;;;;;;8.87;7.97;;;;;;;;;;5103910;27;20460;-63
2021/05/02 13:29:07;;;;;;;9.63;8.17;;;;;;;;;;5103744;28;20434;-64
2021/05/02 13:31:46;;;;;;;11.40;10.40;;;;;;;;;;5110064;27;20432;-64
2021/05/02 13:34:14;;;;;;;10.97;9.97;;;;;;;;;;5107893;27;20788;-64
2021/05/02 13:36:41;;;;;;;12.17;10.90;;;;;;;;;;5100695;27;20607;-63
2021/05/02 13:39:07;;;;;;;11.90;10.80;;;;;;;;;;5101545;27;20430;-63
2021/05/02 13:41:33;;;;;;;14.53;13.03;;;;;;;;;;5107780;27;20806;-64
2021/05/02 13:44:06;;;;;;;13.47;12.07;;;;;;;;;;5107736;27;20685;-64
2021/05/02 13:46:31;;;;;;;10.70;9.60;;;;;;;;;;5101830;28;20899;-63
2021/05/02 13:48:56;;;;;;;11.83;10.63;;;;;;;;;;5113889;27;20552;-64
2021/05/02 13:51:21;;;;;;;12.17;10.97;;;;;;;;;;5101079;27;20234;-63
2021/05/02 13:53:53;;;;;;;11.03;9.93;;;;;;;;;;5100586;27;20257;-63
2021/05/02 13:56:19;;;;;;;14.13;11.13;;;;;;;;;;5106906;27;20214;-64
2021/05/02 13:58:45;;;;;;;11.70;10.50;;;;;;;;;;5106965;27;20488;-64
2021/05/02 14:01:12;;;;;;;13.00;10.70;;;;;;;;;;5101949;27;20533;-64
2021/05/02 14:03:37;;;;;;;11.37;10.17;;;;;;;;;;5111117;27;20459;-63
2021/05/02 14:06:02;;;;;;;12.93;10.50;;;;;;;;;;5114298;27;20478;-64
2021/05/02 14:08:28;;;;;;;11.63;10.53;;;;;;;;;;5100490;27;20227;-63
2021/05/02 14:10:53;;;;;;;12.27;11.07;;;;;;;;;;5110296;27;20219;-64
2021/05/02 14:13:18;;;;;;;13.40;12.10;;;;;;;;;;5114123;28;20302;-63
2021/05/02 14:15:46;;;;;;;12.33;11.10;;;;;;;;;;5106026;27;20235;-63
2021/05/02 14:18:11;;;;;;;14.37;12.97;;;;;;;;;;5107284;27;20537;-63
2021/05/02 14:20:36;;;;;;;15.33;13.60;;;;;;;;;;5101694;27;20440;-63
2021/05/02 14:23:01;;;;;;;15.60;14.17;;;;;;;;;;5100164;27;20305;-63
2021/05/02 14:25:27;;;;;;;15.67;14.17;;;;;;;;;;5107407;27;20238;-64
2021/05/02 14:27:52;;;;;;;16.73;14.20;;;;;;;;;;5099831;28;20305;-64
2021/05/02 14:30:17;;;;;;;18.90;14.67;;;;;;;;;;5106097;27;20275;-63
2021/05/02 14:32:44;;;;;;;16.00;14.50;;;;;;;;;;5105982;27;20267;-64